Time;durP1;ratioP1;P1;durP2;ratioP2;P2;SDS_P1;SDS_P2;PMS_P1;PMS_P2;Temp;Humidity;BMP_temperature;BMP_pressure;BME280_temperature;BME280_humidity;BME280_pressure;Samples;Min_cycle;Max_cycle;Signal;HPM_P1;HPM_P2
2022/02/03 00:00:05;;;;;;;;;;;-1.30;99.90;;;;;;4934386;28;19934;-65
2022/02/03 00:02:44;;;;;;;;;;;-1.30;99.90;;;;;;4933615;28;19926;-66
2022/02/03 00:05:18;;;;;;;;;;;-1.40;99.90;;;;;;4931595;28;20052;-64
2022/02/03 00:08:09;;;;;;;;;;;-1.40;99.90;;;;;;4930412;28;20009;-64
2022/02/03 00:24:21;;;;;;;;;;;-1.60;99.90;;;;;;4933335;28;20024;-67
2022/02/03 00:27:04;;;;;;;;;;;-1.60;99.90;;;;;;4933159;28;21258;-69
2022/02/03 00:29:49;;;;;;;;;;;-1.70;99.90;;;;;;4935182;28;20013;-64
2022/02/03 00:36:00;;;;;;;;;;;-1.80;99.90;;;;;;4930522;28;19930;-63
2022/02/03 00:38:27;;;;;;;;;;;-1.80;99.90;;;;;;4929648;28;20513;-64
2022/02/03 00:49:14;;;;;;;;;;;-2.00;99.90;;;;;;4934908;28;19930;-62
2022/02/03 00:51:46;;;;;;;;;;;-2.00;99.90;;;;;;4938716;28;21069;-68
2022/02/03 00:54:14;;;;;;;;;;;-1.90;99.90;;;;;;4936171;28;20032;-69
2022/02/03 00:56:44;;;;;;;;;;;-1.90;99.90;;;;;;4937092;28;19958;-68
2022/02/03 00:59:11;;;;;;;;;;;-1.90;99.90;;;;;;4933844;28;20037;-65
2022/02/03 01:01:40;;;;;;;;;;;-1.90;99.90;;;;;;4934608;28;20568;-65
2022/02/03 01:04:08;;;;;;;;;;;-1.90;99.90;;;;;;4931413;28;19932;-67
2022/02/03 01:06:38;;;;;;;;;;;-1.90;99.90;;;;;;4934631;28;19931;-62
2022/02/03 01:09:08;;;;;;;;;;;-1.90;99.90;;;;;;4934220;28;19930;-70
2022/02/03 01:11:40;;;;;;;;;;;-1.90;99.90;;;;;;4933156;28;19930;-68
2022/02/03 01:14:16;;;;;;;;;;;-1.90;99.90;;;;;;4938277;28;20638;-69
2022/02/03 01:20:16;;;;;;;;;;;-1.90;99.90;;;;;;4935020;28;21272;-65
2022/02/03 01:44:19;;;;;;;;;;;-1.80;99.90;;;;;;4233380;28;10000150;-65
2022/02/03 01:47:00;;;;;;;;;;;-1.80;99.90;;;;;;3405751;28;10002017;-65
2022/02/03 01:52:21;;;;;;;;;;;-1.70;99.90;;;;;;4911779;28;19935;-67
2022/02/03 01:54:51;;;;;;;;;;;-1.60;99.90;;;;;;4933402;28;19927;-66
2022/02/03 01:57:18;;;;;;;;;;;-1.60;99.90;;;;;;4937670;28;21206;-62
2022/02/03 01:59:47;;;;;;;;;;;-1.60;99.90;;;;;;4936766;28;20367;-63
2022/02/03 02:02:15;;;;;;;;;;;-1.50;99.90;;;;;;4936223;28;19931;-66
2022/02/03 02:05:08;;;;;;;;;;;-1.50;99.90;;;;;;4931077;28;20035;-63
2022/02/03 02:07:57;;;;;;;;;;;-1.50;99.90;;;;;;4935385;28;19937;-66
2022/02/03 02:11:06;;;;;;;;;;;-1.50;99.90;;;;;;4939076;28;20012;-63
2022/02/03 02:38:42;;;;;;;;;;;-0.70;99.90;;;;;;4935818;28;19997;-66
2022/02/03 02:44:22;;;;;;;;;;;-0.70;99.90;;;;;;4935163;28;19930;-64
2022/02/03 02:46:53;;;;;;;;;;;-0.70;99.90;;;;;;4962257;28;19949;-70
2022/02/03 02:49:25;;;;;;;;;;;-0.70;99.90;;;;;;4940757;28;20506;-67
2022/02/03 02:52:02;;;;;;;;;;;-0.70;99.90;;;;;;4932196;28;20006;-69
2022/02/03 02:54:59;;;;;;;;;;;-0.70;99.90;;;;;;4932870;28;19926;-66
2022/02/03 02:57:59;;;;;;;;;;;-0.70;99.90;;;;;;4934172;28;19927;-64
2022/02/03 03:35:56;;;;;;;;;;;-0.70;99.90;;;;;;4933570;28;20051;-68
2022/02/03 03:38:28;;;;;;;;;;;-0.80;99.90;;;;;;4929725;28;19950;-66
2022/02/03 03:40:56;;;;;;;;;;;-0.80;99.90;;;;;;4931409;28;20010;-68
2022/02/03 03:43:35;;;;;;;;;;;-0.80;99.90;;;;;;4864910;28;19931;-64
2022/02/03 03:46:08;;;;;;;;;;;-0.80;99.90;;;;;;959665;28;10002034;-65
2022/02/03 03:48:39;;;;;;;;;;;-0.80;99.90;;;;;;4908159;29;20095;-74
2022/02/03 03:51:09;;;;;;;;;;;-0.80;99.90;;;;;;4932633;28;20345;-68
2022/02/03 03:53:49;;;;;;;;;;;-0.70;99.90;;;;;;4929607;28;21673;-66
2022/02/03 03:56:34;;;;;;;;;;;-0.60;99.90;;;;;;4930137;28;19981;-66
2022/02/03 04:31:53;;;;;;;;;;;-0.80;99.90;;;;;;4929949;28;20557;-64
2022/02/03 05:05:02;;;;;;;;;;;-0.70;99.90;;;;;;4934169;28;20030;-62
2022/02/03 05:10:56;;;;;;;;;;;-0.80;99.90;;;;;;4932079;28;19940;-69
2022/02/03 05:21:54;;;;;;;;;;;-0.70;99.90;;;;;;4934151;28;19934;-66
2022/02/03 05:48:22;;;;;;;;;;;-1.00;99.90;;;;;;3904647;28;10001211;-62
2022/02/03 06:02:36;;;;;;;;;;;-1.30;99.90;;;;;;4937261;28;20037;-63
2022/02/03 06:21:49;;;;;;;;;;;-1.50;99.90;;;;;;4932368;28;19930;-66
2022/02/03 06:23:49;;;;;;;;;;;-1.50;99.90;;;;;;4934384;28;19930;-65
2022/02/03 06:29:16;;;;;;;;;;;-1.40;99.90;;;;;;4929520;28;19965;-66
2022/02/03 06:31:45;;;;;;;;;;;-1.30;99.90;;;;;;4932955;28;20052;-64
2022/02/03 06:34:16;;;;;;;;;;;-1.30;99.90;;;;;;4932513;28;19927;-65
2022/02/03 06:36:43;;;;;;;;;;;-1.20;99.90;;;;;;4930233;28;20237;-67
2022/02/03 06:39:12;;;;;;;;;;;-1.20;99.90;;;;;;4934407;28;19930;-69
2022/02/03 06:41:39;;;;;;;;;;;-1.20;99.90;;;;;;4933168;28;20300;-66
2022/02/03 06:44:07;;;;;;;;;;;-1.20;99.90;;;;;;4933503;28;19952;-64
2022/02/03 06:46:35;;;;;;;;;;;-1.10;99.90;;;;;;4932723;28;19956;-64
2022/02/03 06:49:18;;;;;;;;;;;-1.10;99.90;;;;;;4931509;28;19937;-64
2022/02/03 06:51:56;;;;;;;;;;;-1.10;99.90;;;;;;4928341;28;20269;-68
2022/02/03 06:54:33;;;;;;;;;;;-1.10;99.90;;;;;;4929814;28;20048;-67
2022/02/03 06:57:04;;;;;;;;;;;-1.10;99.90;;;;;;4927840;28;20053;-67
2022/02/03 06:59:56;;;;;;;;;;;-1.00;99.90;;;;;;4931751;28;20581;-66
2022/02/03 07:02:22;;;;;;;;;;;-1.00;99.90;;;;;;4932394;28;20424;-62
2022/02/03 07:04:49;;;;;;;;;;;-0.90;99.90;;;;;;4931114;28;20344;-65
2022/02/03 07:07:18;;;;;;;;;;;-0.90;99.90;;;;;;4928355;28;20383;-66
2022/02/03 07:09:49;;;;;;;;;;;-0.90;99.90;;;;;;4931351;28;19930;-69
2022/02/03 07:12:16;;;;;;;;;;;-0.90;99.90;;;;;;4932618;28;20010;-67
2022/02/03 07:14:43;;;;;;;;;;;-0.90;99.90;;;;;;4928524;28;20280;-69
2022/02/03 07:17:10;;;;;;;;;;;-0.80;99.90;;;;;;4930361;28;20006;-66
2022/02/03 07:19:44;;;;;;;;;;;-0.80;99.90;;;;;;4932059;28;19930;-62
2022/02/03 07:22:11;;;;;;;;;;;-0.80;99.90;;;;;;4929241;28;19929;-64
2022/02/03 07:24:38;;;;;;;;;;;-0.70;99.90;;;;;;4927331;28;19930;-65
2022/02/03 07:27:05;;;;;;;;;;;-0.70;99.90;;;;;;4928863;28;19933;-66
2022/02/03 07:29:31;;;;;;;;;;;-0.70;99.90;;;;;;4932894;28;19937;-71
2022/02/03 07:31:58;;;;;;;;;;;-0.70;99.90;;;;;;4929915;28;20189;-67
2022/02/03 07:34:25;;;;;;;;;;;-0.70;99.90;;;;;;4929635;28;20108;-67
2022/02/03 07:36:52;;;;;;;;;;;-0.80;99.90;;;;;;4927334;28;19953;-66
2022/02/03 07:39:19;;;;;;;;;;;-0.80;99.90;;;;;;4931486;28;19930;-67
2022/02/03 07:41:45;;;;;;;;;;;-0.80;99.90;;;;;;4932007;28;20586;-65
2022/02/03 07:44:17;;;;;;;;;;;-0.80;99.90;;;;;;3548410;28;10023783;-63
2022/02/03 07:46:44;;;;;;;;;;;-0.80;99.90;;;;;;2719992;28;10002020;-64
2022/02/03 07:49:10;;;;;;;;;;;-0.80;99.90;;;;;;4931414;28;20024;-68
2022/02/03 07:51:37;;;;;;;;;;;-0.80;99.90;;;;;;4931927;28;19962;-71
2022/02/03 07:54:04;;;;;;;;;;;-0.80;99.90;;;;;;4926395;28;19936;-71
2022/02/03 07:56:31;;;;;;;;;;;-0.80;99.90;;;;;;4927420;28;20021;-66
2022/02/03 07:58:58;;;;;;;;;;;-0.80;99.90;;;;;;4927003;28;19930;-67
2022/02/03 08:01:26;;;;;;;;;;;-0.80;99.90;;;;;;4931440;28;20053;-63
2022/02/03 08:03:53;;;;;;;;;;;-0.70;99.90;;;;;;4929790;28;20825;-67
2022/02/03 08:06:28;;;;;;;;;;;-0.70;99.90;;;;;;4929527;28;24117;-66
2022/02/03 08:09:05;;;;;;;;;;;-0.70;99.90;;;;;;4926519;28;19930;-64
2022/02/03 08:11:37;;;;;;;;;;;-0.70;99.90;;;;;;4933267;28;20057;-71
2022/02/03 08:16:37;;;;;;;;;;;-0.60;99.90;;;;;;4933091;28;20021;-67
2022/02/03 08:19:09;;;;;;;;;;;-0.60;99.90;;;;;;4928065;28;20006;-67
2022/02/03 08:21:42;;;;;;;;;;;-0.60;99.90;;;;;;4931693;28;20014;-67
2022/02/03 08:24:23;;;;;;;;;;;-0.60;99.90;;;;;;4927103;28;19937;-63
2022/02/03 08:32:31;;;;;;;;;;;-0.60;99.90;;;;;;4931607;28;20020;-66
2022/02/03 08:35:13;;;;;;;;;;;-0.60;99.90;;;;;;4927979;28;19936;-72
2022/02/03 08:37:46;;;;;;;;;;;-0.60;99.90;;;;;;4930727;28;19930;-66
2022/02/03 08:40:29;;;;;;;;;;;-0.50;99.90;;;;;;4930433;28;19997;-65
2022/02/03 08:42:56;;;;;;;;;;;-0.50;99.90;;;;;;4931588;28;20043;-70
2022/02/03 08:45:22;;;;;;;;;;;-0.40;99.90;;;;;;4931088;28;19949;-66
2022/02/03 08:47:49;;;;;;;;;;;-0.30;99.90;;;;;;4930222;28;20007;-67
2022/02/03 08:50:16;;;;;;;;;;;-0.20;99.90;;;;;;4934823;28;20065;-65
2022/02/03 09:57:59;;;;;;;;;;;0.40;99.90;;;;;;4934262;28;20337;-67
2022/02/03 10:00:27;;;;;;;;;;;0.40;99.90;;;;;;4933142;28;20478;-71
2022/02/03 10:02:58;;;;;;;;;;;0.50;99.90;;;;;;4930982;28;19930;-72
2022/02/03 10:05:39;;;;;;;;;;;0.50;99.90;;;;;;4933693;28;19930;-64
2022/02/03 10:08:10;;;;;;;;;;;0.50;99.90;;;;;;4931457;28;19957;-67
2022/02/03 10:10:48;;;;;;;;;;;0.50;99.90;;;;;;4931204;28;19936;-70
2022/02/03 10:13:16;;;;;;;;;;;0.50;99.90;;;;;;4929034;28;19926;-69
2022/02/03 10:15:43;;;;;;;;;;;0.50;99.90;;;;;;4933341;28;19926;-69
2022/02/03 10:18:20;;;;;;;;;;;0.60;99.90;;;;;;4929456;28;20020;-66
2022/02/03 10:20:48;;;;;;;;;;;0.60;99.90;;;;;;4930958;28;19937;-65
2022/02/03 10:23:21;;;;;;;;;;;0.60;99.90;;;;;;4933179;28;20056;-68
2022/02/03 10:25:51;;;;;;;;;;;0.60;99.90;;;;;;4933201;28;19937;-62
2022/02/03 10:28:18;;;;;;;;;;;0.70;99.90;;;;;;4929396;28;19930;-69
2022/02/03 10:30:49;;;;;;;;;;;0.70;99.90;;;;;;4933102;28;20074;-65
2022/02/03 10:33:16;;;;;;;;;;;0.70;99.90;;;;;;4936403;28;19926;-67
2022/02/03 10:35:49;;;;;;;;;;;0.70;99.90;;;;;;4931417;28;20006;-65
2022/02/03 10:54:51;;;;;;;;;;;1.00;99.90;;;;;;4945074;28;19929;-68
2022/02/03 11:10:29;;;;;;;;;;;1.20;99.90;;;;;;4927935;28;20365;-63
2022/02/03 11:12:56;;;;;;;;;;;1.20;99.90;;;;;;4926826;28;19931;-67
2022/02/03 11:15:24;;;;;;;;;;;1.20;99.90;;;;;;4931460;28;19930;-67
2022/02/03 11:17:54;;;;;;;;;;;1.30;99.90;;;;;;4934002;28;20264;-64
2022/02/03 11:20:21;;;;;;;;;;;1.30;99.90;;;;;;4933996;28;20206;-67
2022/02/03 11:38:40;;;;;;;;;;;1.50;99.90;;;;;;4929486;28;19946;-68
2022/02/03 12:03:44;;;;;;;;;;;1.20;99.90;;;;;;4933918;28;19941;-66
2022/02/03 12:20:30;;;;;;;;;;;1.30;99.90;;;;;;4934207;28;20293;-66
2022/02/03 12:23:04;;;;;;;;;;;1.30;99.90;;;;;;4932340;28;20381;-66
2022/02/03 12:25:43;;;;;;;;;;;1.40;99.90;;;;;;4931994;28;20350;-67
2022/02/03 12:31:38;;;;;;;;;;;1.50;99.90;;;;;;4931278;28;19937;-64
2022/02/03 12:38:56;;;;;;;;;;;1.70;99.90;;;;;;4931743;28;19963;-66
2022/02/03 12:41:35;;;;;;;;;;;1.70;99.90;;;;;;4934667;28;19934;-68
2022/02/03 12:44:07;;;;;;;;;;;1.70;99.90;;;;;;4932941;28;20063;-70
2022/02/03 12:46:35;;;;;;;;;;;1.70;99.90;;;;;;4934618;28;20017;-67
2022/02/03 12:49:02;;;;;;;;;;;1.80;99.90;;;;;;4928240;28;19930;-68
2022/02/03 12:51:28;;;;;;;;;;;1.80;99.90;;;;;;4933756;28;19940;-65
2022/02/03 12:53:56;;;;;;;;;;;1.90;99.90;;;;;;4932312;28;19937;-65
2022/02/03 12:56:23;;;;;;;;;;;2.00;99.90;;;;;;4933927;28;19941;-72
2022/02/03 12:58:59;;;;;;;;;;;2.10;99.90;;;;;;4935104;28;20049;-63
2022/02/03 13:01:34;;;;;;;;;;;2.10;99.90;;;;;;4937524;28;19942;-68
2022/02/03 13:04:08;;;;;;;;;;;2.10;99.90;;;;;;4939292;28;20608;-64
2022/02/03 13:06:40;;;;;;;;;;;2.10;99.90;;;;;;4936640;28;21534;-66
2022/02/03 13:09:08;;;;;;;;;;;2.20;99.90;;;;;;4930020;28;20127;-66
2022/02/03 13:11:45;;;;;;;;;;;2.30;99.90;;;;;;4925903;28;19930;-67
2022/02/03 13:16:53;;;;;;;;;;;2.40;99.90;;;;;;4933277;28;19931;-66
2022/02/03 13:19:54;;;;;;;;;;;2.40;99.90;;;;;;4933400;28;20021;-67
2022/02/03 13:27:56;;;;;;;;;;;2.40;99.90;;;;;;4930332;28;20339;-65
2022/02/03 13:30:59;;;;;;;;;;;2.30;99.90;;;;;;4929044;28;20392;-64
2022/02/03 13:33:31;;;;;;;;;;;2.20;99.90;;;;;;4931128;28;20007;-69
2022/02/03 13:36:07;;;;;;;;;;;2.10;99.90;;;;;;4932886;28;20028;-68
2022/02/03 13:38:43;;;;;;;;;;;2.10;99.90;;;;;;4934424;28;19930;-66
2022/02/03 13:41:24;;;;;;;;;;;2.00;99.90;;;;;;4931106;28;20357;-69
2022/02/03 13:43:55;;;;;;;;;;;2.00;99.90;;;;;;4558058;28;10000412;-63
2022/02/03 13:46:25;;;;;;;;;;;1.90;99.90;;;;;;1698989;28;10002022;-67
2022/02/03 13:48:52;;;;;;;;;;;1.80;99.90;;;;;;4929430;28;19934;-68
2022/02/03 13:51:23;;;;;;;;;;;1.70;99.90;;;;;;4934371;28;19930;-65
2022/02/03 13:54:28;;;;;;;;;;;1.60;99.90;;;;;;4932848;28;20369;-65
2022/02/03 14:14:08;;;;;;;;;;;1.40;99.90;;;;;;4934050;28;20313;-66
2022/02/03 14:21:44;;;;;;;;;;;1.30;99.90;;;;;;4932146;28;19930;-66
2022/02/03 14:27:26;;;;;;;;;;;1.30;99.90;;;;;;4923468;28;20033;-69
2022/02/03 14:30:00;;;;;;;;;;;1.30;99.90;;;;;;4932109;28;20061;-69
2022/02/03 14:32:35;;;;;;;;;;;1.20;99.90;;;;;;4929920;28;20385;-64
2022/02/03 14:35:05;;;;;;;;;;;1.10;99.90;;;;;;4929565;28;20077;-68
2022/02/03 14:40:53;;;;;;;;;;;1.10;99.90;;;;;;4929566;28;19934;-67
2022/02/03 14:42:46;;;;;;;;;;;1.10;99.90;;;;;;4935758;28;20041;-63
2022/02/03 14:45:15;;;;;;;;;;;1.10;99.90;;;;;;4932418;28;19966;-67
2022/02/03 14:47:42;;;;;;;;;;;1.10;99.90;;;;;;4934967;28;19930;-67
2022/02/03 14:50:10;;;;;;;;;;;1.00;99.90;;;;;;4928487;28;19930;-67
2022/02/03 14:52:58;;;;;;;;;;;1.00;99.90;;;;;;4930082;28;20230;-67
2022/02/03 15:00:46;;;;;;;;;;;1.00;99.90;;;;;;4927710;28;19937;-68
2022/02/03 15:03:13;;;;;;;;;;;0.90;99.90;;;;;;4932965;28;20037;-69
2022/02/03 15:05:41;;;;;;;;;;;0.90;99.90;;;;;;4931169;28;19926;-69
2022/02/03 15:08:31;;;;;;;;;;;0.90;99.90;;;;;;4933882;28;20308;-67
2022/02/03 15:11:09;;;;;;;;;;;0.90;99.90;;;;;;4927212;28;20339;-68
2022/02/03 15:13:41;;;;;;;;;;;0.90;99.90;;;;;;4932726;28;20020;-70
2022/02/03 15:16:08;;;;;;;;;;;0.90;99.90;;;;;;4932517;28;20029;-70
2022/02/03 15:18:36;;;;;;;;;;;0.90;99.90;;;;;;4933130;28;19930;-62
2022/02/03 15:21:07;;;;;;;;;;;0.90;99.90;;;;;;4930458;28;20021;-65
2022/02/03 15:23:34;;;;;;;;;;;0.90;99.90;;;;;;4931234;28;19930;-67
2022/02/03 15:26:01;;;;;;;;;;;0.90;99.90;;;;;;4931133;28;20436;-67
2022/02/03 15:28:28;;;;;;;;;;;0.90;99.90;;;;;;4930795;28;20021;-67
2022/02/03 15:30:55;;;;;;;;;;;0.80;99.90;;;;;;4925576;28;20102;-65
2022/02/03 15:33:26;;;;;;;;;;;0.80;99.90;;;;;;4930411;28;19930;-62
2022/02/03 15:35:58;;;;;;;;;;;0.80;99.90;;;;;;4927791;28;20017;-70
2022/02/03 15:38:27;;;;;;;;;;;0.80;99.90;;;;;;4928694;28;20493;-70
2022/02/03 15:40:56;;;;;;;;;;;0.80;99.90;;;;;;4928653;28;20021;-61
2022/02/03 15:43:27;;;;;;;;;;;0.80;99.90;;;;;;4852905;28;21409;-62
2022/02/03 15:45:58;;;;;;;;;;;0.80;99.90;;;;;;1300997;28;10001971;-62
2022/02/03 16:04:29;;;;;;;;;;;0.60;99.90;;;;;;4935179;28;19958;-67
2022/02/03 16:17:55;;;;;;;;;;;0.40;99.90;;;;;;4931938;28;19930;-65
2022/02/03 16:20:27;;;;;;;;;;;0.40;99.90;;;;;;4929118;28;20536;-65
2022/02/03 16:25:55;;;;;;;;;;;0.40;99.90;;;;;;4928828;28;20044;-65
2022/02/03 16:52:53;;;;;;;;;;;0.50;99.90;;;;;;4931354;28;19937;-68
2022/02/03 16:55:23;;;;;;;;;;;0.50;99.90;;;;;;4933445;28;19938;-64
2022/02/03 16:57:53;;;;;;;;;;;0.50;99.90;;;;;;4934828;28;19969;-68
2022/02/03 17:00:21;;;;;;;;;;;0.50;99.90;;;;;;4933380;28;20060;-66
2022/02/03 17:02:57;;;;;;;;;;;0.50;99.90;;;;;;4933236;28;19962;-66
2022/02/03 17:05:24;;;;;;;;;;;0.50;99.90;;;;;;4933102;28;20328;-66
2022/02/03 17:07:51;;;;;;;;;;;0.50;99.90;;;;;;4933782;28;19953;-65
2022/02/03 17:10:18;;;;;;;;;;;0.50;99.90;;;;;;4926780;28;22089;-67
2022/02/03 17:12:45;;;;;;;;;;;0.50;99.90;;;;;;4931932;28;19937;-66
2022/02/03 17:15:12;;;;;;;;;;;0.50;99.90;;;;;;4932203;28;19949;-65
2022/02/03 17:17:38;;;;;;;;;;;0.50;99.90;;;;;;4934368;28;20968;-68
2022/02/03 17:20:05;;;;;;;;;;;0.50;99.90;;;;;;4935226;28;20045;-68
2022/02/03 17:22:37;;;;;;;;;;;0.50;99.90;;;;;;4932485;28;20009;-73
2022/02/03 17:25:11;;;;;;;;;;;0.60;99.90;;;;;;4934061;28;20851;-65
2022/02/03 17:27:47;;;;;;;;;;;0.60;99.90;;;;;;4937122;28;20005;-64
2022/02/03 17:30:28;;;;;;;;;;;0.60;99.90;;;;;;4929684;28;20021;-65
2022/02/03 18:03:01;;;;;;;;;;;0.60;99.90;;;;;;4935024;28;20796;-71
2022/02/03 18:07:15;;;;;;;;;;;0.70;99.90;;;;;;4935488;28;19930;-69
2022/02/03 18:18:20;;;;;;;;;;;0.70;99.90;;;;;;4936420;28;20116;-67
2022/02/03 18:27:20;;;;;;;;;;;0.80;99.90;;;;;;4935224;28;20245;-63
2022/02/03 18:37:11;;;;;;;;;;;0.90;99.90;;;;;;4922783;28;19976;-68
2022/02/03 18:51:24;;;;;;;;;;;1.00;99.90;;;;;;4924591;28;19953;-72
2022/02/03 18:53:30;;;;;;;;;;;1.00;99.90;;;;;;4918488;28;19931;-66
2022/02/03 18:56:24;;;;;;;;;;;1.00;99.90;;;;;;4933728;28;19934;-65
2022/02/03 18:59:06;;;;;;;;;;;1.00;99.90;;;;;;4935553;28;19931;-62
2022/02/03 19:21:22;;;;;;;;;;;1.10;99.90;;;;;;4930527;28;19938;-64
2022/02/03 19:24:13;;;;;;;;;;;1.10;99.90;;;;;;4934804;28;19984;-63
2022/02/03 20:07:36;;;;;;;;;;;1.10;99.90;;;;;;4932302;28;20002;-70
2022/02/03 20:10:14;;;;;;;;;;;1.10;99.90;;;;;;4934374;28;19937;-65
2022/02/03 20:12:41;;;;;;;;;;;1.10;99.90;;;;;;4932002;28;20123;-68
2022/02/03 20:15:09;;;;;;;;;;;1.10;99.90;;;;;;4935692;28;20545;-65
2022/02/03 20:17:36;;;;;;;;;;;1.10;99.90;;;;;;4932471;28;19930;-70
2022/02/03 20:20:03;;;;;;;;;;;1.10;99.90;;;;;;4934754;28;19936;-64
2022/02/03 20:22:34;;;;;;;;;;;1.10;99.90;;;;;;4929099;28;19934;-70
2022/02/03 20:25:05;;;;;;;;;;;1.10;99.90;;;;;;4935084;28;19936;-64
2022/02/03 20:27:32;;;;;;;;;;;1.20;99.90;;;;;;4932617;28;19926;-70
2022/02/03 20:29:59;;;;;;;;;;;1.20;99.90;;;;;;4932177;28;20044;-68
2022/02/03 20:32:29;;;;;;;;;;;1.20;99.90;;;;;;4933348;28;19974;-69
2022/02/03 20:34:57;;;;;;;;;;;1.20;99.90;;;;;;4931507;28;21435;-66
2022/02/03 20:37:23;;;;;;;;;;;1.20;99.90;;;;;;4933215;28;20389;-73
2022/02/03 20:39:50;;;;;;;;;;;1.30;99.90;;;;;;4934612;28;19931;-72
2022/02/03 20:42:17;;;;;;;;;;;1.20;99.90;;;;;;4930960;28;20365;-66
2022/02/03 20:44:45;;;;;;;;;;;1.30;99.90;;;;;;4933796;28;20678;-67
2022/02/03 20:47:12;;;;;;;;;;;1.30;99.90;;;;;;4930566;28;20021;-67
2022/02/03 20:49:41;;;;;;;;;;;1.30;99.90;;;;;;4936160;28;20017;-68
2022/02/03 20:52:08;;;;;;;;;;;1.20;99.90;;;;;;4933462;28;19930;-64
2022/02/03 20:54:35;;;;;;;;;;;1.30;99.90;;;;;;4937911;28;20036;-66
2022/02/03 20:57:02;;;;;;;;;;;1.30;99.90;;;;;;4932492;28;19930;-63
2022/02/03 20:59:41;;;;;;;;;;;1.30;99.90;;;;;;4937325;28;20040;-66
2022/02/03 21:02:11;;;;;;;;;;;1.30;99.90;;;;;;4931890;28;20064;-61
2022/02/03 21:04:58;;;;;;;;;;;1.30;99.90;;;;;;4938718;28;20068;-70
2022/02/03 21:07:25;;;;;;;;;;;1.30;99.90;;;;;;4932679;28;20013;-69
2022/02/03 21:09:51;;;;;;;;;;;1.30;99.90;;;;;;4936429;28;20053;-66
2022/02/03 21:12:18;;;;;;;;;;;1.30;99.90;;;;;;4933943;28;19930;-64
2022/02/03 21:14:48;;;;;;;;;;;1.30;99.90;;;;;;4937017;28;19931;-63
2022/02/03 21:17:15;;;;;;;;;;;1.40;99.90;;;;;;4935485;28;19966;-65
2022/02/03 21:19:41;;;;;;;;;;;1.40;99.90;;;;;;4936750;28;20044;-64
2022/02/03 21:22:08;;;;;;;;;;;1.40;99.90;;;;;;4934469;28;21362;-65
2022/02/03 21:24:35;;;;;;;;;;;1.40;99.90;;;;;;4936689;28;21327;-66
2022/02/03 21:27:02;;;;;;;;;;;1.40;99.90;;;;;;4926735;28;19937;-65
2022/02/03 21:29:29;;;;;;;;;;;1.40;99.90;;;;;;4928393;28;19982;-67
2022/02/03 21:31:56;;;;;;;;;;;1.40;99.90;;;;;;4932578;28;20685;-66
2022/02/03 21:34:25;;;;;;;;;;;1.40;99.90;;;;;;4934757;28;19930;-67
2022/02/03 21:36:55;;;;;;;;;;;1.40;99.90;;;;;;4928022;28;20648;-65
2022/02/03 21:39:22;;;;;;;;;;;1.40;99.90;;;;;;4935328;28;20057;-65
2022/02/03 21:41:48;;;;;;;;;;;1.40;99.90;;;;;;4933436;28;19930;-68
2022/02/03 21:44:18;;;;;;;;;;;1.40;99.90;;;;;;3516012;28;10022787;-66
2022/02/03 21:46:45;;;;;;;;;;;1.40;99.90;;;;;;2718790;28;10002101;-66
2022/02/03 21:49:12;;;;;;;;;;;1.40;99.90;;;;;;4933024;28;20133;-67
2022/02/03 21:51:42;;;;;;;;;;;1.40;99.90;;;;;;4931964;28;20724;-68
2022/02/03 21:54:11;;;;;;;;;;;1.40;99.90;;;;;;4931085;28;19944;-66
2022/02/03 21:56:37;;;;;;;;;;;1.50;99.90;;;;;;4927794;28;20033;-72
2022/02/03 21:59:08;;;;;;;;;;;1.50;99.90;;;;;;4928031;28;20045;-65
2022/02/03 22:01:38;;;;;;;;;;;1.50;99.90;;;;;;4935658;28;20464;-62
2022/02/03 22:04:05;;;;;;;;;;;1.50;99.90;;;;;;4933463;28;19930;-69
2022/02/03 22:06:31;;;;;;;;;;;1.50;99.90;;;;;;4934639;28;20300;-67
2022/02/03 22:08:58;;;;;;;;;;;1.50;99.90;;;;;;4931695;28;20006;-68
2022/02/03 22:11:25;;;;;;;;;;;1.50;99.90;;;;;;4935479;28;20327;-70
2022/02/03 22:13:52;;;;;;;;;;;1.60;99.90;;;;;;4936377;28;20032;-65
2022/02/03 22:16:23;;;;;;;;;;;1.60;99.90;;;;;;4934232;28;19942;-67
2022/02/03 22:18:50;;;;;;;;;;;1.60;99.90;;;;;;4937073;28;20245;-67
2022/02/03 22:21:36;;;;;;;;;;;1.60;99.90;;;;;;4936717;28;19930;-64
2022/02/03 22:27:03;;;;;;;;;;;1.70;99.90;;;;;;4935700;28;19926;-70
2022/02/03 22:38:34;;;;;;;;;;;1.70;99.90;;;;;;4936120;28;19971;-67
2022/02/03 22:43:17;;;;;;;;;;;1.70;99.90;;;;;;4930848;28;19930;-69
2022/02/03 22:46:09;;;;;;;;;;;1.70;99.90;;;;;;4932597;28;20032;-67
2022/02/03 22:48:31;;;;;;;;;;;1.80;99.90;;;;;;4930036;28;20044;-67
2022/02/03 22:50:59;;;;;;;;;;;1.80;99.90;;;;;;4929252;28;19937;-69
2022/02/03 22:53:32;;;;;;;;;;;1.80;99.90;;;;;;4935505;28;20412;-70
2022/02/03 22:56:01;;;;;;;;;;;1.90;99.90;;;;;;4933963;28;20059;-65
2022/02/03 23:01:13;;;;;;;;;;;1.90;99.90;;;;;;4931691;28;19926;-68
2022/02/03 23:03:40;;;;;;;;;;;1.90;99.90;;;;;;4933183;28;19939;-65
2022/02/03 23:06:08;;;;;;;;;;;1.90;99.90;;;;;;4931996;28;19934;-64
2022/02/03 23:16:47;;;;;;;;;;;1.90;99.90;;;;;;4938421;28;19966;-66
2022/02/03 23:19:33;;;;;;;;;;;1.90;99.90;;;;;;4936112;28;20563;-67
2022/02/03 23:22:13;;;;;;;;;;;2.00;99.90;;;;;;4939026;28;20381;-67
2022/02/03 23:24:44;;;;;;;;;;;1.90;99.90;;;;;;4937650;28;19937;-70
2022/02/03 23:29:59;;;;;;;;;;;2.00;99.90;;;;;;4926432;28;20029;-61
2022/02/03 23:32:27;;;;;;;;;;;2.00;99.90;;;;;;4935899;28;20037;-64
2022/02/03 23:35:08;;;;;;;;;;;2.00;99.90;;;;;;4937503;28;20025;-62
2022/02/03 23:37:38;;;;;;;;;;;2.00;99.90;;;;;;4934431;28;20017;-69
2022/02/03 23:40:23;;;;;;;;;;;2.00;99.90;;;;;;4934120;28;19961;-66
